sensor_id;sensor_type;location;lat;lon;timestamp;P1;durP1;ratioP1;P2;durP2;ratioP2
6424;SDS011;12193;42.642;23.384;2023-04-16T00:01:01;5.43;;;2.87;;
6424;SDS011;12193;42.642;23.384;2023-04-16T00:03:34;5.40;;;2.47;;
6424;SDS011;12193;42.642;23.384;2023-04-16T00:06:03;5.00;;;2.70;;
6424;SDS011;12193;42.642;23.384;2023-04-16T03:08:43;4.70;;;2.53;;
6424;SDS011;12193;42.642;23.384;2023-04-16T03:11:13;3.80;;;2.47;;
6424;SDS011;12193;42.642;23.384;2023-04-16T03:13:42;4.23;;;2.33;;
6424;SDS011;12193;42.642;23.384;2023-04-16T03:16:12;5.03;;;2.30;;
6424;SDS011;12193;42.642;23.384;2023-04-16T03:18:41;3.70;;;2.27;;
6424;SDS011;12193;42.642;23.384;2023-04-16T03:21:10;3.40;;;2.10;;
6424;SDS011;12193;42.642;23.384;2023-04-16T03:23:40;4.07;;;2.57;;
6424;SDS011;12193;42.642;23.384;2023-04-16T03:26:11;3.07;;;2.00;;
6424;SDS011;12193;42.642;23.384;2023-04-16T03:28:41;4.00;;;2.20;;
6424;SDS011;12193;42.642;23.384;2023-04-16T03:31:10;3.23;;;2.10;;
6424;SDS011;12193;42.642;23.384;2023-04-16T03:33:40;3.93;;;2.17;;
6424;SDS011;12193;42.642;23.384;2023-04-16T03:36:09;4.33;;;2.40;;
6424;SDS011;12193;42.642;23.384;2023-04-16T03:38:38;6.93;;;2.33;;
6424;SDS011;12193;42.642;23.384;2023-04-16T03:41:10;4.33;;;2.53;;
6424;SDS011;12193;42.642;23.384;2023-04-16T03:43:40;4.10;;;2.03;;
6424;SDS011;12193;42.642;23.384;2023-04-16T03:46:09;4.60;;;2.50;;
6424;SDS011;12193;42.642;23.384;2023-04-16T03:48:38;6.27;;;2.60;;
6424;SDS011;12193;42.642;23.384;2023-04-16T03:51:08;3.50;;;2.30;;
6424;SDS011;12193;42.642;23.384;2023-04-16T03:53:37;3.63;;;2.20;;
6424;SDS011;12193;42.642;23.384;2023-04-16T03:56:06;2.53;;;2.00;;
6424;SDS011;12193;42.642;23.384;2023-04-16T03:58:39;4.33;;;2.17;;
6424;SDS011;12193;42.642;23.384;2023-04-16T04:01:08;4.30;;;2.33;;
6424;SDS011;12193;42.642;23.384;2023-04-16T04:03:37;3.83;;;2.20;;
6424;SDS011;12193;42.642;23.384;2023-04-16T04:06:07;4.90;;;2.30;;
6424;SDS011;12193;42.642;23.384;2023-04-16T04:08:37;3.80;;;2.50;;
6424;SDS011;12193;42.642;23.384;2023-04-16T04:11:06;5.20;;;2.10;;
6424;SDS011;12193;42.642;23.384;2023-04-16T04:13:38;4.00;;;2.23;;
6424;SDS011;12193;42.642;23.384;2023-04-16T04:16:08;5.37;;;2.33;;
6424;SDS011;12193;42.642;23.384;2023-04-16T04:18:37;5.20;;;2.70;;
6424;SDS011;12193;42.642;23.384;2023-04-16T04:21:06;3.90;;;2.40;;
6424;SDS011;12193;42.642;23.384;2023-04-16T04:23:36;3.60;;;2.10;;
6424;SDS011;12193;42.642;23.384;2023-04-16T04:26:06;5.67;;;2.47;;
6424;SDS011;12193;42.642;23.384;2023-04-16T04:28:38;4.13;;;2.10;;
6424;SDS011;12193;42.642;23.384;2023-04-16T04:31:08;4.77;;;2.37;;
6424;SDS011;12193;42.642;23.384;2023-04-16T04:33:37;3.47;;;2.10;;
6424;SDS011;12193;42.642;23.384;2023-04-16T04:36:06;5.80;;;2.53;;
6424;SDS011;12193;42.642;23.384;2023-04-16T04:38:36;3.07;;;2.17;;
6424;SDS011;12193;42.642;23.384;2023-04-16T04:41:05;3.03;;;2.30;;
6424;SDS011;12193;42.642;23.384;2023-04-16T04:43:34;6.90;;;2.33;;
6424;SDS011;12193;42.642;23.384;2023-04-16T04:46:06;4.30;;;2.37;;
6424;SDS011;12193;42.642;23.384;2023-04-16T04:48:35;4.73;;;2.73;;
6424;SDS011;12193;42.642;23.384;2023-04-16T04:51:05;4.03;;;2.40;;
6424;SDS011;12193;42.642;23.384;2023-04-16T04:53:34;3.40;;;2.60;;
6424;SDS011;12193;42.642;23.384;2023-04-16T04:56:04;5.13;;;2.63;;
6424;SDS011;12193;42.642;23.384;2023-04-16T04:58:33;3.80;;;2.17;;
6424;SDS011;12193;42.642;23.384;2023-04-16T05:01:03;4.33;;;2.67;;
6424;SDS011;12193;42.642;23.384;2023-04-16T05:03:35;8.40;;;2.80;;
6424;SDS011;12193;42.642;23.384;2023-04-16T05:06:05;9.23;;;2.90;;
6424;SDS011;12193;42.642;23.384;2023-04-16T05:08:34;5.33;;;2.70;;
6424;SDS011;12193;42.642;23.384;2023-04-16T05:11:03;7.13;;;2.83;;
6424;SDS011;12193;42.642;23.384;2023-04-16T05:13:33;4.40;;;2.50;;
6424;SDS011;12193;42.642;23.384;2023-04-16T05:16:02;4.03;;;2.70;;
6424;SDS011;12193;42.642;23.384;2023-04-16T05:18:35;7.50;;;2.70;;
6424;SDS011;12193;42.642;23.384;2023-04-16T05:21:04;5.60;;;2.70;;
6424;SDS011;12193;42.642;23.384;2023-04-16T05:23:33;6.60;;;3.27;;
6424;SDS011;12193;42.642;23.384;2023-04-16T05:26:03;4.40;;;2.67;;
6424;SDS011;12193;42.642;23.384;2023-04-16T05:28:32;4.60;;;2.77;;
6424;SDS011;12193;42.642;23.384;2023-04-16T05:31:01;4.20;;;2.60;;
6424;SDS011;12193;42.642;23.384;2023-04-16T05:33:31;6.43;;;2.70;;
6424;SDS011;12193;42.642;23.384;2023-04-16T05:36:03;3.80;;;2.53;;
6424;SDS011;12193;42.642;23.384;2023-04-16T05:38:32;3.63;;;2.47;;
6424;SDS011;12193;42.642;23.384;2023-04-16T05:41:01;7.13;;;3.07;;
6424;SDS011;12193;42.642;23.384;2023-04-16T05:43:31;6.37;;;3.10;;
6424;SDS011;12193;42.642;23.384;2023-04-16T05:46:00;8.20;;;3.20;;
6424;SDS011;12193;42.642;23.384;2023-04-16T05:48:30;5.27;;;2.70;;
6424;SDS011;12193;42.642;23.384;2023-04-16T05:50:59;6.47;;;3.30;;
6424;SDS011;12193;42.642;23.384;2023-04-16T05:53:32;6.53;;;3.10;;
6424;SDS011;12193;42.642;23.384;2023-04-16T05:56:01;4.37;;;2.77;;
6424;SDS011;12193;42.642;23.384;2023-04-16T05:58:31;3.30;;;2.57;;
6424;SDS011;12193;42.642;23.384;2023-04-16T06:01:00;8.40;;;2.80;;
6424;SDS011;12193;42.642;23.384;2023-04-16T06:03:30;3.83;;;2.60;;
6424;SDS011;12193;42.642;23.384;2023-04-16T06:05:59;4.83;;;2.70;;
6424;SDS011;12193;42.642;23.384;2023-04-16T06:08:28;6.03;;;3.17;;
6424;SDS011;12193;42.642;23.384;2023-04-16T06:11:00;6.07;;;3.00;;
6424;SDS011;12193;42.642;23.384;2023-04-16T06:13:29;4.90;;;3.13;;
6424;SDS011;12193;42.642;23.384;2023-04-16T06:15:59;4.60;;;2.57;;
6424;SDS011;12193;42.642;23.384;2023-04-16T06:18:28;6.47;;;3.10;;
6424;SDS011;12193;42.642;23.384;2023-04-16T06:20:57;8.13;;;4.03;;
6424;SDS011;12193;42.642;23.384;2023-04-16T06:23:27;7.90;;;3.50;;
6424;SDS011;12193;42.642;23.384;2023-04-16T06:25:57;5.77;;;3.73;;
6424;SDS011;12193;42.642;23.384;2023-04-16T06:28:29;7.60;;;3.60;;
6424;SDS011;12193;42.642;23.384;2023-04-16T06:30:58;8.93;;;3.73;;
6424;SDS011;12193;42.642;23.384;2023-04-16T06:33:27;6.93;;;3.23;;
6424;SDS011;12193;42.642;23.384;2023-04-16T06:35:57;10.13;;;3.97;;
6424;SDS011;12193;42.642;23.384;2023-04-16T06:38:26;7.77;;;4.03;;
6424;SDS011;12193;42.642;23.384;2023-04-16T06:40:56;7.30;;;4.27;;
6424;SDS011;12193;42.642;23.384;2023-04-16T06:43:28;9.47;;;5.40;;
6424;SDS011;12193;42.642;23.384;2023-04-16T06:45:58;11.07;;;4.90;;
6424;SDS011;12193;42.642;23.384;2023-04-16T06:48:27;9.53;;;4.93;;
6424;SDS011;12193;42.642;23.384;2023-04-16T06:50:56;11.97;;;6.20;;
6424;SDS011;12193;42.642;23.384;2023-04-16T06:53:26;9.60;;;5.10;;
6424;SDS011;12193;42.642;23.384;2023-04-16T06:55:56;10.07;;;5.37;;
6424;SDS011;12193;42.642;23.384;2023-04-16T06:58:27;8.23;;;5.37;;
6424;SDS011;12193;42.642;23.384;2023-04-16T07:00:58;8.13;;;4.57;;
6424;SDS011;12193;42.642;23.384;2023-04-16T07:03:27;6.20;;;4.03;;
6424;SDS011;12193;42.642;23.384;2023-04-16T07:05:56;7.70;;;4.23;;
6424;SDS011;12193;42.642;23.384;2023-04-16T07:08:25;11.57;;;5.33;;
6424;SDS011;12193;42.642;23.384;2023-04-16T07:10:55;11.27;;;5.33;;
6424;SDS011;12193;42.642;23.384;2023-04-16T07:13:24;9.53;;;4.90;;
6424;SDS011;12193;42.642;23.384;2023-04-16T07:15:56;9.37;;;5.20;;
6424;SDS011;12193;42.642;23.384;2023-04-16T07:18:26;10.00;;;5.30;;
6424;SDS011;12193;42.642;23.384;2023-04-16T07:20:55;13.10;;;5.30;;
6424;SDS011;12193;42.642;23.384;2023-04-16T07:23:25;8.43;;;5.10;;
6424;SDS011;12193;42.642;23.384;2023-04-16T07:25:54;11.67;;;6.20;;
6424;SDS011;12193;42.642;23.384;2023-04-16T07:28:23;9.80;;;5.70;;
6424;SDS011;12193;42.642;23.384;2023-04-16T07:30:52;11.57;;;6.10;;
6424;SDS011;12193;42.642;23.384;2023-04-16T07:33:25;9.47;;;5.87;;
6424;SDS011;12193;42.642;23.384;2023-04-16T07:35:54;9.33;;;5.20;;
6424;SDS011;12193;42.642;23.384;2023-04-16T07:38:24;10.50;;;5.50;;
6424;SDS011;12193;42.642;23.384;2023-04-16T07:40:53;10.03;;;5.37;;
6424;SDS011;12193;42.642;23.384;2023-04-16T07:43:23;8.13;;;5.00;;
6424;SDS011;12193;42.642;23.384;2023-04-16T07:45:52;8.33;;;4.60;;
6424;SDS011;12193;42.642;23.384;2023-04-16T07:48:24;8.10;;;4.87;;
6424;SDS011;12193;42.642;23.384;2023-04-16T07:50:54;7.40;;;4.10;;
6424;SDS011;12193;42.642;23.384;2023-04-16T07:53:23;5.83;;;3.53;;
6424;SDS011;12193;42.642;23.384;2023-04-16T07:55:52;6.83;;;3.33;;
6424;SDS011;12193;42.642;23.384;2023-04-16T07:58:22;8.33;;;3.87;;
6424;SDS011;12193;42.642;23.384;2023-04-16T08:00:51;6.30;;;3.47;;
6424;SDS011;12193;42.642;23.384;2023-04-16T08:03:24;4.47;;;3.37;;
6424;SDS011;12193;42.642;23.384;2023-04-16T08:05:53;5.47;;;3.00;;
6424;SDS011;12193;42.642;23.384;2023-04-16T08:08:23;5.90;;;2.97;;
6424;SDS011;12193;42.642;23.384;2023-04-16T08:10:53;6.07;;;2.93;;
6424;SDS011;12193;42.642;23.384;2023-04-16T08:13:22;3.83;;;2.53;;
6424;SDS011;12193;42.642;23.384;2023-04-16T08:15:53;6.33;;;2.80;;
6424;SDS011;12193;42.642;23.384;2023-04-16T08:18:25;8.83;;;3.13;;
6424;SDS011;12193;42.642;23.384;2023-04-16T08:20:54;5.30;;;2.90;;
6424;SDS011;12193;42.642;23.384;2023-04-16T08:23:24;8.07;;;3.03;;
6424;SDS011;12193;42.642;23.384;2023-04-16T08:25:54;6.10;;;4.00;;
6424;SDS011;12193;42.642;23.384;2023-04-16T08:28:23;7.07;;;3.80;;
6424;SDS011;12193;42.642;23.384;2023-04-16T08:30:53;4.77;;;2.70;;
6424;SDS011;12193;42.642;23.384;2023-04-16T08:33:24;6.30;;;2.80;;
6424;SDS011;12193;42.642;23.384;2023-04-16T08:35:54;7.80;;;2.80;;
6424;SDS011;12193;42.642;23.384;2023-04-16T08:38:23;6.70;;;2.87;;
6424;SDS011;12193;42.642;23.384;2023-04-16T08:40:53;5.33;;;2.90;;
6424;SDS011;12193;42.642;23.384;2023-04-16T08:43:23;7.17;;;3.30;;
6424;SDS011;12193;42.642;23.384;2023-04-16T08:45:53;6.33;;;3.10;;
6424;SDS011;12193;42.642;23.384;2023-04-16T08:48:27;5.83;;;3.20;;
6424;SDS011;12193;42.642;23.384;2023-04-16T08:51:00;5.87;;;2.83;;
6424;SDS011;12193;42.642;23.384;2023-04-16T08:53:31;5.67;;;2.87;;
6424;SDS011;12193;42.642;23.384;2023-04-16T08:56:04;5.50;;;3.57;;
6424;SDS011;12193;42.642;23.384;2023-04-16T08:58:37;8.63;;;3.13;;
6424;SDS011;12193;42.642;23.384;2023-04-16T09:01:08;5.73;;;3.30;;
6424;SDS011;12193;42.642;23.384;2023-04-16T09:03:41;4.23;;;2.77;;
6424;SDS011;12193;42.642;23.384;2023-04-16T09:06:12;4.50;;;2.80;;
6424;SDS011;12193;42.642;23.384;2023-04-16T09:08:43;4.60;;;2.70;;
6424;SDS011;12193;42.642;23.384;2023-04-16T09:11:13;4.83;;;2.60;;
6424;SDS011;12193;42.642;23.384;2023-04-16T09:13:46;8.13;;;2.83;;
6424;SDS011;12193;42.642;23.384;2023-04-16T09:16:15;7.00;;;2.87;;
6424;SDS011;12193;42.642;23.384;2023-04-16T09:18:48;4.97;;;2.97;;
6424;SDS011;12193;42.642;23.384;2023-04-16T09:21:17;8.37;;;4.27;;
6424;SDS011;12193;42.642;23.384;2023-04-16T09:23:49;7.63;;;2.90;;
6424;SDS011;12193;42.642;23.384;2023-04-16T09:26:20;6.40;;;3.10;;
6424;SDS011;12193;42.642;23.384;2023-04-16T09:28:50;6.60;;;2.97;;
6424;SDS011;12193;42.642;23.384;2023-04-16T09:31:20;7.57;;;3.30;;
6424;SDS011;12193;42.642;23.384;2023-04-16T09:36:36;5.87;;;2.87;;
6424;SDS011;12193;42.642;23.384;2023-04-16T09:39:06;4.77;;;2.83;;
6424;SDS011;12193;42.642;23.384;2023-04-16T09:41:45;6.73;;;2.90;;
6424;SDS011;12193;42.642;23.384;2023-04-16T09:44:16;6.70;;;3.10;;
6424;SDS011;12193;42.642;23.384;2023-04-16T09:46:45;7.47;;;3.00;;
6424;SDS011;12193;42.642;23.384;2023-04-16T09:49:17;4.90;;;3.03;;
6424;SDS011;12193;42.642;23.384;2023-04-16T09:51:47;4.80;;;2.60;;
6424;SDS011;12193;42.642;23.384;2023-04-16T09:54:19;8.50;;;2.87;;
6424;SDS011;12193;42.642;23.384;2023-04-16T09:56:48;7.97;;;3.20;;
6424;SDS011;12193;42.642;23.384;2023-04-16T09:59:18;7.83;;;2.80;;
6424;SDS011;12193;42.642;23.384;2023-04-16T10:01:48;7.30;;;3.10;;
6424;SDS011;12193;42.642;23.384;2023-04-16T10:04:21;6.73;;;2.97;;
6424;SDS011;12193;42.642;23.384;2023-04-16T10:07:01;6.83;;;3.00;;
6424;SDS011;12193;42.642;23.384;2023-04-16T10:09:33;6.00;;;3.33;;
6424;SDS011;12193;42.642;23.384;2023-04-16T10:12:05;10.43;;;3.63;;
6424;SDS011;12193;42.642;23.384;2023-04-16T10:14:35;6.63;;;2.90;;
6424;SDS011;12193;42.642;23.384;2023-04-16T10:17:04;4.60;;;2.70;;
6424;SDS011;12193;42.642;23.384;2023-04-16T10:19:36;4.60;;;2.67;;
6424;SDS011;12193;42.642;23.384;2023-04-16T10:22:06;6.10;;;3.23;;
6424;SDS011;12193;42.642;23.384;2023-04-16T10:24:37;6.10;;;2.80;;
6424;SDS011;12193;42.642;23.384;2023-04-16T10:27:08;5.43;;;2.70;;
6424;SDS011;12193;42.642;23.384;2023-04-16T10:29:38;6.23;;;3.20;;
6424;SDS011;12193;42.642;23.384;2023-04-16T10:32:08;5.87;;;3.10;;
6424;SDS011;12193;42.642;23.384;2023-04-16T10:34:41;5.93;;;3.27;;
6424;SDS011;12193;42.642;23.384;2023-04-16T10:37:10;6.80;;;2.87;;
6424;SDS011;12193;42.642;23.384;2023-04-16T10:39:40;6.20;;;2.97;;
6424;SDS011;12193;42.642;23.384;2023-04-16T10:42:09;6.47;;;2.60;;
6424;SDS011;12193;42.642;23.384;2023-04-16T10:44:39;4.60;;;2.60;;
6424;SDS011;12193;42.642;23.384;2023-04-16T10:47:09;7.00;;;3.27;;
6424;SDS011;12193;42.642;23.384;2023-04-16T10:49:42;10.00;;;3.47;;
6424;SDS011;12193;42.642;23.384;2023-04-16T10:52:15;5.00;;;2.97;;
6424;SDS011;12193;42.642;23.384;2023-04-16T10:54:45;8.20;;;3.20;;
6424;SDS011;12193;42.642;23.384;2023-04-16T10:57:15;6.93;;;3.33;;
6424;SDS011;12193;42.642;23.384;2023-04-16T10:59:47;8.47;;;3.20;;
6424;SDS011;12193;42.642;23.384;2023-04-16T11:02:17;5.03;;;2.73;;
6424;SDS011;12193;42.642;23.384;2023-04-16T11:04:49;4.13;;;2.77;;
6424;SDS011;12193;42.642;23.384;2023-04-16T11:07:19;3.60;;;2.60;;
6424;SDS011;12193;42.642;23.384;2023-04-16T11:09:50;5.07;;;2.60;;
6424;SDS011;12193;42.642;23.384;2023-04-16T11:12:21;3.77;;;2.70;;
6424;SDS011;12193;42.642;23.384;2023-04-16T11:14:57;7.80;;;2.97;;
6424;SDS011;12193;42.642;23.384;2023-04-16T11:17:28;4.47;;;2.30;;
6424;SDS011;12193;42.642;23.384;2023-04-16T11:20:02;6.60;;;2.93;;
6424;SDS011;12193;42.642;23.384;2023-04-16T11:22:33;4.60;;;2.40;;
6424;SDS011;12193;42.642;23.384;2023-04-16T11:25:04;5.07;;;2.23;;
6424;SDS011;12193;42.642;23.384;2023-04-16T11:27:34;5.07;;;2.33;;
6424;SDS011;12193;42.642;23.384;2023-04-16T11:30:04;3.70;;;2.27;;
6424;SDS011;12193;42.642;23.384;2023-04-16T11:32:35;6.40;;;2.20;;
6424;SDS011;12193;42.642;23.384;2023-04-16T11:35:14;5.23;;;2.97;;
6424;SDS011;12193;42.642;23.384;2023-04-16T11:37:45;5.37;;;2.37;;
6424;SDS011;12193;42.642;23.384;2023-04-16T11:40:15;6.33;;;2.53;;
6424;SDS011;12193;42.642;23.384;2023-04-16T11:42:45;4.87;;;2.40;;
6424;SDS011;12193;42.642;23.384;2023-04-16T11:45:14;6.77;;;1.90;;
6424;SDS011;12193;42.642;23.384;2023-04-16T11:47:44;4.70;;;2.40;;
6424;SDS011;12193;42.642;23.384;2023-04-16T11:50:19;5.40;;;2.27;;
6424;SDS011;12193;42.642;23.384;2023-04-16T11:52:50;4.17;;;2.37;;
6424;SDS011;12193;42.642;23.384;2023-04-16T11:55:21;4.10;;;2.20;;
6424;SDS011;12193;42.642;23.384;2023-04-16T11:57:51;5.93;;;2.20;;
6424;SDS011;12193;42.642;23.384;2023-04-16T12:00:20;3.33;;;1.90;;
6424;SDS011;12193;42.642;23.384;2023-04-16T12:02:50;5.37;;;2.33;;
6424;SDS011;12193;42.642;23.384;2023-04-16T12:05:30;6.27;;;2.20;;
6424;SDS011;12193;42.642;23.384;2023-04-16T12:08:00;4.97;;;2.30;;
6424;SDS011;12193;42.642;23.384;2023-04-16T12:10:31;5.43;;;2.10;;
6424;SDS011;12193;42.642;23.384;2023-04-16T12:13:09;4.40;;;2.27;;
6424;SDS011;12193;42.642;23.384;2023-04-16T12:15:42;3.83;;;2.17;;
6424;SDS011;12193;42.642;23.384;2023-04-16T12:18:12;5.50;;;2.10;;
6424;SDS011;12193;42.642;23.384;2023-04-16T12:20:45;6.20;;;2.27;;
6424;SDS011;12193;42.642;23.384;2023-04-16T12:23:21;3.90;;;2.07;;
6424;SDS011;12193;42.642;23.384;2023-04-16T12:25:52;5.47;;;2.17;;
6424;SDS011;12193;42.642;23.384;2023-04-16T12:28:28;7.10;;;2.77;;
6424;SDS011;12193;42.642;23.384;2023-04-16T12:30:58;10.87;;;2.50;;
6424;SDS011;12193;42.642;23.384;2023-04-16T12:33:28;12.73;;;3.70;;
6424;SDS011;12193;42.642;23.384;2023-04-16T12:36:00;4.47;;;2.53;;
6424;SDS011;12193;42.642;23.384;2023-04-16T12:38:29;5.73;;;2.60;;
6424;SDS011;12193;42.642;23.384;2023-04-16T12:40:58;5.77;;;3.07;;
6424;SDS011;12193;42.642;23.384;2023-04-16T12:43:30;6.67;;;2.57;;
6424;SDS011;12193;42.642;23.384;2023-04-16T12:45:59;4.93;;;2.73;;
6424;SDS011;12193;42.642;23.384;2023-04-16T12:48:28;5.53;;;2.90;;
6424;SDS011;12193;42.642;23.384;2023-04-16T12:51:01;4.80;;;2.67;;
6424;SDS011;12193;42.642;23.384;2023-04-16T12:53:31;5.63;;;2.83;;
6424;SDS011;12193;42.642;23.384;2023-04-16T12:56:00;4.03;;;2.67;;
6424;SDS011;12193;42.642;23.384;2023-04-16T12:58:30;5.73;;;2.77;;
6424;SDS011;12193;42.642;23.384;2023-04-16T13:00:59;4.70;;;3.07;;
6424;SDS011;12193;42.642;23.384;2023-04-16T13:03:28;5.30;;;2.47;;
6424;SDS011;12193;42.642;23.384;2023-04-16T13:06:03;4.50;;;2.43;;
6424;SDS011;12193;42.642;23.384;2023-04-16T13:08:33;5.77;;;2.60;;
6424;SDS011;12193;42.642;23.384;2023-04-16T13:11:02;5.33;;;2.80;;
6424;SDS011;12193;42.642;23.384;2023-04-16T13:13:32;5.80;;;2.63;;
6424;SDS011;12193;42.642;23.384;2023-04-16T13:16:01;5.70;;;2.87;;
6424;SDS011;12193;42.642;23.384;2023-04-16T13:18:33;4.67;;;2.47;;
6424;SDS011;12193;42.642;23.384;2023-04-16T13:21:07;8.20;;;2.50;;
6424;SDS011;12193;42.642;23.384;2023-04-16T13:23:37;8.80;;;2.87;;
6424;SDS011;12193;42.642;23.384;2023-04-16T13:26:06;6.07;;;2.60;;
6424;SDS011;12193;42.642;23.384;2023-04-16T13:28:37;5.03;;;2.57;;
6424;SDS011;12193;42.642;23.384;2023-04-16T13:31:07;5.63;;;2.83;;
6424;SDS011;12193;42.642;23.384;2023-04-16T13:33:36;5.60;;;2.53;;
6424;SDS011;12193;42.642;23.384;2023-04-16T13:36:09;5.50;;;2.20;;
6424;SDS011;12193;42.642;23.384;2023-04-16T13:38:38;4.27;;;2.40;;
6424;SDS011;12193;42.642;23.384;2023-04-16T13:41:08;5.03;;;2.10;;
6424;SDS011;12193;42.642;23.384;2023-04-16T13:43:37;5.67;;;2.47;;
6424;SDS011;12193;42.642;23.384;2023-04-16T13:46:06;5.13;;;2.40;;
6424;SDS011;12193;42.642;23.384;2023-04-16T13:48:36;5.30;;;2.67;;
6424;SDS011;12193;42.642;23.384;2023-04-16T13:51:08;3.47;;;2.10;;
6424;SDS011;12193;42.642;23.384;2023-04-16T13:53:40;2.37;;;2.10;;
6424;SDS011;12193;42.642;23.384;2023-04-16T13:56:09;4.07;;;2.30;;
6424;SDS011;12193;42.642;23.384;2023-04-16T13:58:38;4.77;;;2.20;;
6424;SDS011;12193;42.642;23.384;2023-04-16T14:01:08;5.23;;;2.40;;
6424;SDS011;12193;42.642;23.384;2023-04-16T14:03:37;4.03;;;2.70;;
6424;SDS011;12193;42.642;23.384;2023-04-16T14:06:10;6.10;;;2.80;;
6424;SDS011;12193;42.642;23.384;2023-04-16T14:08:42;5.13;;;2.53;;
6424;SDS011;12193;42.642;23.384;2023-04-16T14:11:12;3.57;;;2.17;;
6424;SDS011;12193;42.642;23.384;2023-04-16T14:13:41;4.97;;;2.50;;
6424;SDS011;12193;42.642;23.384;2023-04-16T14:16:10;4.97;;;2.40;;
6424;SDS011;12193;42.642;23.384;2023-04-16T14:18:40;4.23;;;2.30;;
6424;SDS011;12193;42.642;23.384;2023-04-16T14:21:12;4.97;;;2.60;;
6424;SDS011;12193;42.642;23.384;2023-04-16T14:23:41;3.93;;;2.60;;
6424;SDS011;12193;42.642;23.384;2023-04-16T14:26:11;5.90;;;2.70;;
6424;SDS011;12193;42.642;23.384;2023-04-16T14:28:41;5.67;;;2.73;;
6424;SDS011;12193;42.642;23.384;2023-04-16T14:31:10;3.73;;;2.80;;
6424;SDS011;12193;42.642;23.384;2023-04-16T14:33:39;9.77;;;2.97;;
6424;SDS011;12193;42.642;23.384;2023-04-16T14:36:09;5.10;;;3.00;;
6424;SDS011;12193;42.642;23.384;2023-04-16T14:38:41;7.23;;;2.60;;
6424;SDS011;12193;42.642;23.384;2023-04-16T14:41:11;5.07;;;3.00;;
6424;SDS011;12193;42.642;23.384;2023-04-16T14:43:40;6.80;;;2.93;;
6424;SDS011;12193;42.642;23.384;2023-04-16T14:46:10;6.03;;;3.00;;
6424;SDS011;12193;42.642;23.384;2023-04-16T14:48:42;5.43;;;3.17;;
6424;SDS011;12193;42.642;23.384;2023-04-16T14:51:14;5.80;;;2.97;;
6424;SDS011;12193;42.642;23.384;2023-04-16T14:53:44;4.73;;;3.10;;
6424;SDS011;12193;42.642;23.384;2023-04-16T14:56:13;4.73;;;3.20;;
6424;SDS011;12193;42.642;23.384;2023-04-16T14:58:42;6.00;;;3.33;;
6424;SDS011;12193;42.642;23.384;2023-04-16T15:01:12;6.10;;;3.40;;
6424;SDS011;12193;42.642;23.384;2023-04-16T15:03:41;6.43;;;3.57;;
6424;SDS011;12193;42.642;23.384;2023-04-16T15:06:10;6.53;;;3.47;;
6424;SDS011;12193;42.642;23.384;2023-04-16T15:08:43;5.80;;;3.30;;
6424;SDS011;12193;42.642;23.384;2023-04-16T15:11:13;5.37;;;3.00;;
6424;SDS011;12193;42.642;23.384;2023-04-16T15:13:42;5.40;;;3.00;;
6424;SDS011;12193;42.642;23.384;2023-04-16T15:16:12;4.50;;;3.10;;
6424;SDS011;12193;42.642;23.384;2023-04-16T15:18:41;7.73;;;3.00;;
6424;SDS011;12193;42.642;23.384;2023-04-16T15:21:10;5.83;;;2.97;;
6424;SDS011;12193;42.642;23.384;2023-04-16T15:23:43;6.73;;;2.97;;
6424;SDS011;12193;42.642;23.384;2023-04-16T15:26:12;4.80;;;2.80;;
6424;SDS011;12193;42.642;23.384;2023-04-16T15:28:41;4.40;;;2.90;;
6424;SDS011;12193;42.642;23.384;2023-04-16T15:31:11;5.17;;;3.07;;
6424;SDS011;12193;42.642;23.384;2023-04-16T15:33:40;5.83;;;3.10;;
6424;SDS011;12193;42.642;23.384;2023-04-16T15:36:10;4.30;;;2.90;;
6424;SDS011;12193;42.642;23.384;2023-04-16T15:38:42;6.43;;;3.10;;
6424;SDS011;12193;42.642;23.384;2023-04-16T15:41:11;6.20;;;3.00;;
6424;SDS011;12193;42.642;23.384;2023-04-16T15:43:41;5.80;;;3.07;;
6424;SDS011;12193;42.642;23.384;2023-04-16T15:46:11;6.50;;;3.53;;
6424;SDS011;12193;42.642;23.384;2023-04-16T15:48:40;4.27;;;2.90;;
6424;SDS011;12193;42.642;23.384;2023-04-16T15:51:09;5.37;;;3.00;;
6424;SDS011;12193;42.642;23.384;2023-04-16T15:53:39;6.13;;;3.90;;
6424;SDS011;12193;42.642;23.384;2023-04-16T15:56:12;5.10;;;2.77;;
6424;SDS011;12193;42.642;23.384;2023-04-16T15:58:42;5.13;;;3.10;;
6424;SDS011;12193;42.642;23.384;2023-04-16T16:01:11;6.80;;;2.87;;
6424;SDS011;12193;42.642;23.384;2023-04-16T16:03:41;4.47;;;2.73;;
6424;SDS011;12193;42.642;23.384;2023-04-16T16:06:10;4.97;;;2.73;;
6424;SDS011;12193;42.642;23.384;2023-04-16T16:08:45;5.80;;;3.80;;
6424;SDS011;12193;42.642;23.384;2023-04-16T16:11:15;6.63;;;3.00;;
6424;SDS011;12193;42.642;23.384;2023-04-16T16:13:44;5.13;;;3.20;;
6424;SDS011;12193;42.642;23.384;2023-04-16T16:16:14;8.07;;;3.23;;
6424;SDS011;12193;42.642;23.384;2023-04-16T16:18:43;5.23;;;2.90;;
6424;SDS011;12193;42.642;23.384;2023-04-16T16:21:12;5.23;;;3.00;;
6424;SDS011;12193;42.642;23.384;2023-04-16T16:23:44;4.53;;;3.07;;
6424;SDS011;12193;42.642;23.384;2023-04-16T16:26:14;4.23;;;3.00;;
6424;SDS011;12193;42.642;23.384;2023-04-16T16:28:45;4.33;;;2.90;;
6424;SDS011;12193;42.642;23.384;2023-04-16T16:31:14;3.93;;;3.00;;
6424;SDS011;12193;42.642;23.384;2023-04-16T16:33:44;4.13;;;2.73;;
6424;SDS011;12193;42.642;23.384;2023-04-16T16:36:14;6.07;;;4.13;;
6424;SDS011;12193;42.642;23.384;2023-04-16T16:38:46;4.33;;;3.43;;
6424;SDS011;12193;42.642;23.384;2023-04-16T16:41:15;6.20;;;4.20;;
6424;SDS011;12193;42.642;23.384;2023-04-16T16:43:45;5.63;;;3.60;;
6424;SDS011;12193;42.642;23.384;2023-04-16T16:46:15;7.33;;;3.90;;
6424;SDS011;12193;42.642;23.384;2023-04-16T16:48:44;5.77;;;2.80;;
6424;SDS011;12193;42.642;23.384;2023-04-16T16:51:13;5.23;;;3.17;;
6424;SDS011;12193;42.642;23.384;2023-04-16T16:53:46;4.30;;;3.10;;
6424;SDS011;12193;42.642;23.384;2023-04-16T16:56:16;6.17;;;3.40;;
6424;SDS011;12193;42.642;23.384;2023-04-16T16:58:45;4.37;;;3.40;;
6424;SDS011;12193;42.642;23.384;2023-04-16T17:01:14;4.80;;;2.90;;
6424;SDS011;12193;42.642;23.384;2023-04-16T17:03:43;2.90;;;2.50;;
6424;SDS011;12193;42.642;23.384;2023-04-16T17:06:13;5.57;;;3.50;;
6424;SDS011;12193;42.642;23.384;2023-04-16T17:08:42;4.93;;;2.87;;
6424;SDS011;12193;42.642;23.384;2023-04-16T17:11:14;5.90;;;3.23;;
6424;SDS011;12193;42.642;23.384;2023-04-16T17:13:44;5.03;;;3.20;;
6424;SDS011;12193;42.642;23.384;2023-04-16T17:16:14;5.37;;;3.17;;
6424;SDS011;12193;42.642;23.384;2023-04-16T17:18:43;6.97;;;3.50;;
6424;SDS011;12193;42.642;23.384;2023-04-16T17:21:12;6.63;;;3.40;;
6424;SDS011;12193;42.642;23.384;2023-04-16T17:23:42;8.77;;;3.63;;
6424;SDS011;12193;42.642;23.384;2023-04-16T17:26:14;5.30;;;3.67;;
6424;SDS011;12193;42.642;23.384;2023-04-16T17:28:43;6.00;;;3.30;;
6424;SDS011;12193;42.642;23.384;2023-04-16T17:31:13;5.77;;;3.47;;
6424;SDS011;12193;42.642;23.384;2023-04-16T17:33:42;7.67;;;3.80;;
6424;SDS011;12193;42.642;23.384;2023-04-16T17:36:12;5.40;;;3.40;;
6424;SDS011;12193;42.642;23.384;2023-04-16T17:38:41;5.67;;;3.30;;
6424;SDS011;12193;42.642;23.384;2023-04-16T17:41:10;7.33;;;3.43;;
6424;SDS011;12193;42.642;23.384;2023-04-16T17:43:44;8.93;;;3.87;;
6424;SDS011;12193;42.642;23.384;2023-04-16T17:46:15;6.23;;;3.70;;
6424;SDS011;12193;42.642;23.384;2023-04-16T17:48:45;6.53;;;3.80;;
6424;SDS011;12193;42.642;23.384;2023-04-16T17:51:15;7.13;;;4.57;;
6424;SDS011;12193;42.642;23.384;2023-04-16T17:53:44;7.33;;;5.00;;
6424;SDS011;12193;42.642;23.384;2023-04-16T17:56:16;9.00;;;5.63;;
6424;SDS011;12193;42.642;23.384;2023-04-16T17:58:46;11.33;;;5.40;;
6424;SDS011;12193;42.642;23.384;2023-04-16T18:01:15;9.60;;;5.50;;
6424;SDS011;12193;42.642;23.384;2023-04-16T18:03:44;9.70;;;5.77;;
6424;SDS011;12193;42.642;23.384;2023-04-16T18:06:13;7.57;;;4.97;;
6424;SDS011;12193;42.642;23.384;2023-04-16T18:08:44;8.87;;;4.87;;